Time;durP1;ratioP1;P1;durP2;ratioP2;P2;SDS_P1;SDS_P2;PMS_P1;PMS_P2;Temp;Humidity;BMP_temperature;BMP_pressure;BME280_temperature;BME280_humidity;BME280_pressure;Samples;Min_cycle;Max_cycle;Signal;HPM_P1;HPM_P2
2023/08/08 00:00:37;;;;;;;0.40;0.15;;;;;;;;;;6125820;28;20042;-49
2023/08/08 00:03:38;;;;;;;0.38;0.20;;;;;;;;;;6126868;28;20672;-48
2023/08/08 00:06:40;;;;;;;0.38;0.28;;;;;;;;;;6126569;28;20087;-51
2023/08/08 00:09:44;;;;;;;0.40;0.22;;;24.00;75.00;;;;;;6124384;28;20043;-51
2023/08/08 00:12:46;;;;;;;0.77;0.20;;;;;;;;;;6122566;28;20082;-47
2023/08/08 00:15:52;;;;;;;0.30;0.20;;;;;;;;;;6125575;28;20035;-50
2023/08/08 00:18:54;;;;;;;0.30;0.20;;;;;;;;;;6123087;28;20043;-52
2023/08/08 00:21:56;;;;;;;0.90;0.22;;;;;;;;;;6125095;28;20063;-48
2023/08/08 00:24:59;;;;;;;0.40;0.13;;;24.10;77.20;;;;;;6123268;28;20071;-50
2023/08/08 00:28:01;;;;;;;0.20;0.20;;;;;;;;;;6123587;28;20043;-49
2023/08/08 00:31:03;;;;;;;0.20;0.20;;;;;;;;;;6122966;28;20039;-49
2023/08/08 00:34:05;;;;;;;0.22;0.20;;;;;;;;;;6125366;28;20579;-49
2023/08/08 00:37:06;;;;;;;0.40;0.20;;;;;;;;;;6120447;28;20036;-51
2023/08/08 00:40:09;;;;;;;0.20;0.20;;;23.90;76.70;;;;;;6122693;28;20696;-50
2023/08/08 00:43:13;;;;;;;0.60;0.30;;;;;;;;;;6124520;28;20051;-50
2023/08/08 00:46:15;;;;;;;0.10;0.10;;;;;;;;;;6119405;28;20530;-51
2023/08/08 00:49:20;;;;;;;0.20;0.20;;;;;;;;;;6124820;28;20078;-49
2023/08/08 00:52:22;;;;;;;0.28;0.10;;;;;;;;;;6124332;28;20051;-46
2023/08/08 00:55:24;;;;;;;0.20;0.20;;;24.00;77.00;;;;;;6126690;28;20490;-48
2023/08/08 00:58:26;;;;;;;0.20;0.20;;;;;;;;;;6125357;28;20454;-50
2023/08/08 01:01:31;;;;;;;0.90;0.30;;;;;;;;;;6125129;28;20035;-50
2023/08/08 01:04:33;;;;;;;0.13;0.10;;;;;;;;;;6124312;28;20050;-53
2023/08/08 01:07:45;;;;;;;0.20;0.20;;;24.00;76.80;;;;;;6125332;28;20035;-50
2023/08/08 01:10:50;;;;;;;0.50;0.28;;;24.00;76.90;;;;;;6125222;28;20046;-48
2023/08/08 01:13:54;;;;;;;0.85;0.20;;;23.90;77.40;;;;;;6167201;23;20047;-52
2023/08/08 01:16:59;;;;;;;0.28;0.20;;;;;;;;;;6147632;28;20045;-54
2023/08/08 01:20:02;;;;;;;0.20;0.10;;;24.10;74.70;;;;;;6148490;28;20068;-52
2023/08/08 01:23:12;;;;;;;1.10;0.30;;;21.70;75.30;;;;;;6149143;28;20065;-51
2023/08/08 01:26:15;;;;;;;0.40;0.20;;;23.80;76.60;;;;;;6148082;28;20045;-52
2023/08/08 01:29:17;;;;;;;0.40;0.20;;;;;;;;;;6147556;28;20046;-54
2023/08/08 01:32:19;;;;;;;0.40;0.20;;;;;;;;;;6146824;28;20039;-49
2023/08/08 01:35:21;;;;;;;0.30;0.20;;;;;;;;;;6146608;28;20050;-50
2023/08/08 01:41:06;;;;;;;0.32;0.25;;;23.80;73.40;;;;;;6440755;27;20314;-54
2023/08/08 01:44:08;;;;;;;0.20;0.10;;;;;;;;;;6413147;27;20042;-53
2023/08/08 01:47:10;;;;;;;0.10;0.10;;;;;;;;;;6413846;27;20603;-53
2023/08/08 01:50:12;;;;;;;0.10;0.10;;;;;;;;;;6413738;27;20428;-53
2023/08/08 01:53:14;;;;;;;0.10;0.10;;;;;;;;;;6414098;27;20143;-53
2023/08/08 01:56:16;;;;;;;0.10;0.10;;;23.90;73.30;;;;;;6412467;27;20041;-50
2023/08/08 01:59:18;;;;;;;0.20;0.20;;;;;;;;;;6390186;27;20088;-53
2023/08/08 02:02:20;;;;;;;0.20;0.20;;;;;;;;;;6388427;27;20321;-51
2023/08/08 02:05:22;;;;;;;0.40;0.20;;;;;;;;;;6387047;27;20030;-53
2023/08/08 02:08:24;;;;;;;0.20;0.13;;;;;;;;;;6388951;27;20050;-52
2023/08/08 02:11:29;;;;;;;0.45;0.20;;;23.90;73.10;;;;;;6387774;27;20102;-52
2023/08/08 02:14:31;;;;;;;0.17;0.15;;;;;;;;;;6387767;27;20039;-55
2023/08/08 02:17:33;;;;;;;0.10;0.10;;;;;;;;;;6386203;27;20094;-54
2023/08/08 02:20:35;;;;;;;0.20;0.15;;;;;;;;;;6387874;27;20073;-53
2023/08/08 02:23:37;;;;;;;0.30;0.20;;;;;;;;;;6386986;27;20496;-53
2023/08/08 02:26:41;;;;;;;0.38;0.10;;;23.70;73.60;;;;;;6385774;27;20039;-54
2023/08/08 02:29:43;;;;;;;0.20;0.20;;;;;;;;;;6386152;27;20457;-53
2023/08/08 02:32:45;;;;;;;0.20;0.20;;;;;;;;;;6388084;27;20548;-53
2023/08/08 02:35:47;;;;;;;0.30;0.20;;;;;;;;;;6385883;27;20042;-53
2023/08/08 02:38:53;;;;;;;0.20;0.10;;;;;;;;;;6388306;27;20061;-53
2023/08/08 02:41:57;;;;;;;0.10;0.10;;;23.70;73.90;;;;;;6387561;27;20057;-53
2023/08/08 02:45:01;;;;;;;0.10;0.10;;;;;;;;;;6389385;27;20063;-50
2023/08/08 02:48:02;;;;;;;0.10;0.10;;;;;;;;;;6387141;27;20090;-53
2023/08/08 02:51:07;;;;;;;0.32;0.20;;;;;;;;;;6377781;27;20494;-53
2023/08/08 02:54:09;;;;;;;0.10;0.10;;;;;;;;;;6370976;27;20069;-53
2023/08/08 02:57:13;;;;;;;0.10;0.10;;;23.80;74.50;;;;;;6369393;27;20031;-54
2023/08/08 03:00:17;;;;;;;0.20;0.20;;;;;;;;;;6370733;27;20039;-53
2023/08/08 03:03:23;;;;;;;0.88;0.40;;;;;;;;;;6368762;27;20042;-51
2023/08/08 03:06:26;;;;;;;0.43;0.13;;;;;;;;;;6369406;27;20122;-53
2023/08/08 03:09:29;;;;;;;0.30;0.15;;;23.70;74.90;;;;;;6370347;27;20145;-52
2023/08/08 03:12:31;;;;;;;0.20;0.20;;;23.80;73.60;;;;;;6368734;27;20151;-54
2023/08/08 03:15:33;;;;;;;0.20;0.20;;;;;;;;;;6369658;27;20049;-53
2023/08/08 03:18:41;;;;;;;0.55;0.30;;;23.50;74.50;;;;;;6370065;27;20720;-54
2023/08/08 03:21:43;;;;;;;0.40;0.20;;;;;;;;;;6367164;27;20049;-53
2023/08/08 03:24:45;;;;;;;0.52;0.20;;;;;;;;;;6370618;27;20102;-53
2023/08/08 03:27:47;;;;;;;0.30;0.30;;;23.60;74.00;;;;;;6367030;27;20039;-53
2023/08/08 03:30:50;;;;;;;0.30;0.30;;;;;;;;;;6367321;27;20035;-50
2023/08/08 03:33:52;;;;;;;0.40;0.20;;;;;;;;;;6366044;27;20404;-49
2023/08/08 03:36:54;;;;;;;0.10;0.10;;;;;;;;;;6366780;27;20497;-51
2023/08/08 03:39:57;;;;;;;0.30;0.17;;;;;;;;;;6368874;27;20054;-50
2023/08/08 03:43:02;;;;;;;0.30;0.20;;;23.70;74.20;;;;;;6369899;27;20234;-54
2023/08/08 03:46:11;;;;;;;0.20;0.20;;;;;;;;;;6370111;27;20056;-53
2023/08/08 03:49:13;;;;;;;0.15;0.10;;;;;;;;;;6366993;27;20208;-49
2023/08/08 03:52:16;;;;;;;0.63;0.30;;;23.60;70.70;;;;;;6368719;27;20536;-54
2023/08/08 03:55:18;;;;;;;0.28;0.20;;;;;;;;;;6369744;27;20505;-54
2023/08/08 03:58:24;;;;;;;0.52;0.30;;;23.60;75.70;;;;;;6367317;27;20375;-54
2023/08/08 04:01:32;;;;;;;0.10;0.10;;;;;;;;;;6351038;27;20540;-54
2023/08/08 04:04:33;;;;;;;0.30;0.30;;;;;;;;;;6368218;27;20050;-55
2023/08/08 04:07:35;;;;;;;0.30;0.20;;;;;;;;;;6370950;27;20039;-54
2023/08/08 04:10:40;;;;;;;0.32;0.10;;;;;;;;;;6349487;27;20061;-54
2023/08/08 04:13:42;;;;;;;0.40;0.20;;;23.30;74.10;;;;;;6371203;27;20035;-53
2023/08/08 04:16:44;;;;;;;0.30;0.30;;;;;;;;;;6369842;27;20042;-52
2023/08/08 04:19:46;;;;;;;0.10;0.10;;;;;;;;;;6369804;27;20119;-54
2023/08/08 04:22:49;;;;;;;0.65;0.28;;;;;;;;;;6368355;27;20035;-53
2023/08/08 04:25:51;;;;;;;0.13;0.13;;;;;;;;;;6369357;27;20043;-52
2023/08/08 04:28:55;;;;;;;0.20;0.20;;;23.50;74.50;;;;;;6369419;27;20047;-53
2023/08/08 04:31:57;;;;;;;0.10;0.10;;;;;;;;;;6350651;27;20046;-52
2023/08/08 04:34:59;;;;;;;0.20;0.20;;;;;;;;;;6368128;27;20109;-53
2023/08/08 04:38:01;;;;;;;0.17;0.10;;;;;;;;;;6369083;27;20046;-53
2023/08/08 04:41:03;;;;;;;0.45;0.30;;;;;;;;;;6368330;27;20462;-53
2023/08/08 04:44:05;;;;;;;0.10;0.10;;;23.40;74.10;;;;;;6367189;27;20035;-53
2023/08/08 04:47:07;;;;;;;0.20;0.20;;;;;;;;;;6371027;27;20091;-54
2023/08/08 04:50:09;;;;;;;0.10;0.10;;;;;;;;;;6368970;27;20095;-53
2023/08/08 04:53:11;;;;;;;0.20;0.20;;;;;;;;;;6351114;27;20047;-54
2023/08/08 04:56:13;;;;;;;0.50;0.30;;;;;;;;;;6370100;27;20039;-51
2023/08/08 04:59:15;;;;;;;0.20;0.20;;;23.40;75.20;;;;;;6367264;27;20042;-52
2023/08/08 05:02:17;;;;;;;0.57;0.30;;;;;;;;;;6363596;27;20035;-54
2023/08/08 05:05:19;;;;;;;0.20;0.20;;;;;;;;;;6348908;27;20046;-53
2023/08/08 05:08:21;;;;;;;0.20;0.20;;;;;;;;;;6357060;27;20039;-50
2023/08/08 05:11:23;;;;;;;0.43;0.20;;;;;;;;;;6358286;27;20039;-53
2023/08/08 05:14:25;;;;;;;0.25;0.20;;;23.40;75.20;;;;;;6355387;27;20038;-53
2023/08/08 05:17:27;;;;;;;0.10;0.10;;;;;;;;;;6359658;27;20035;-53
2023/08/08 05:20:28;;;;;;;0.20;0.20;;;;;;;;;;6359353;27;20246;-53
2023/08/08 05:23:31;;;;;;;0.17;0.08;;;;;;;;;;6355305;27;20077;-52
2023/08/08 05:26:35;;;;;;;0.22;0.17;;;;;;;;;;6359753;27;20031;-51
2023/08/08 05:29:39;;;;;;;0.40;0.20;;;23.30;75.80;;;;;;6356144;27;20046;-47
2023/08/08 05:32:41;;;;;;;0.10;0.10;;;;;;;;;;6355069;27;20302;-52
2023/08/08 05:35:45;;;;;;;0.43;0.32;;;;;;;;;;6357477;27;20077;-53
2023/08/08 05:38:46;;;;;;;0.52;0.20;;;;;;;;;;6357141;27;20295;-53
2023/08/08 05:41:48;;;;;;;0.30;0.20;;;;;;;;;;6355305;27;20035;-52
2023/08/08 05:44:50;;;;;;;0.40;0.20;;;23.30;75.80;;;;;;6354128;27;20513;-52
2023/08/08 05:47:52;;;;;;;0.20;0.20;;;;;;;;;;6358114;27;20099;-52
2023/08/08 05:50:58;;;;;;;0.50;0.15;;;;;;;;;;6357815;27;20073;-53
2023/08/08 05:54:02;;;;;;;0.98;0.17;;;;;;;;;;6354765;27;20043;-53
2023/08/08 05:57:05;;;;;;;1.30;0.20;;;;;;;;;;6357561;27;20054;-55
2023/08/08 06:00:10;;;;;;;0.40;0.20;;;23.20;76.30;;;;;;6356991;27;20042;-53
2023/08/08 06:03:17;;;;;;;0.55;0.20;;;;;;;;;;6353134;27;20031;-55
2023/08/08 06:06:18;;;;;;;0.30;0.20;;;;;;;;;;6355339;27;20035;-56
2023/08/08 06:09:20;;;;;;;0.85;0.20;;;;;;;;;;6366349;27;20027;-52
2023/08/08 06:12:25;;;;;;;0.68;0.30;;;;;;;;;;6366290;27;20537;-54
2023/08/08 06:15:27;;;;;;;0.65;0.30;;;23.30;76.00;;;;;;6361601;27;20031;-55
2023/08/08 06:18:32;;;;;;;2.22;0.55;;;;;;;;;;6365138;27;20122;-55
2023/08/08 06:21:34;;;;;;;1.00;0.38;;;;;;;;;;6362083;27;20121;-54
2023/08/08 06:24:36;;;;;;;0.55;0.30;;;;;;;;;;6355360;27;20310;-54
2023/08/08 06:27:38;;;;;;;0.25;0.20;;;;;;;;;;6363491;27;20031;-53
2023/08/08 06:30:40;;;;;;;1.17;0.40;;;23.20;76.70;;;;;;6364523;27;20043;-54
2023/08/08 06:33:43;;;;;;;0.70;0.43;;;;;;;;;;6367363;27;20038;-53
2023/08/08 06:36:47;;;;;;;0.68;0.30;;;23.20;73.60;;;;;;6366503;27;20035;-52
2023/08/08 06:39:52;;;;;;;1.40;0.40;;;;;;;;;;6368614;27;20107;-53
2023/08/08 06:42:55;;;;;;;1.08;0.60;;;;;;;;;;6365121;27;20038;-55
2023/08/08 06:45:57;;;;;;;3.38;0.77;;;23.20;77.20;;;;;;6360418;27;20027;-52
2023/08/08 06:49:01;;;;;;;1.65;0.88;;;;;;;;;;6354060;27;20038;-53
2023/08/08 06:52:03;;;;;;;1.20;0.57;;;;;;;;;;6342146;27;20049;-54
2023/08/08 06:55:05;;;;;;;0.57;0.32;;;23.20;77.40;;;;;;6356346;27;20074;-56
2023/08/08 06:58:07;;;;;;;1.45;0.50;;;;;;;;;;6359554;27;20435;-54
2023/08/08 07:01:10;;;;;;;0.80;0.40;;;23.20;77.50;;;;;;6360118;27;20034;-55
2023/08/08 07:04:13;;;;;;;0.40;0.20;;;;;;;;;;6359718;27;20030;-53
2023/08/08 07:07:14;;;;;;;1.25;0.40;;;;;;;;;;6341888;27;20479;-56
2023/08/08 07:10:16;;;;;;;0.75;0.50;;;;;;;;;;6346858;27;20636;-55
2023/08/08 07:13:18;;;;;;;0.52;0.20;;;;;;;;;;6354615;27;20091;-51
2023/08/08 07:16:20;;;;;;;0.60;0.35;;;23.20;77.30;;;;;;6358042;27;20143;-49
2023/08/08 07:19:22;;;;;;;0.85;0.50;;;;;;;;;;6354910;27;20167;-53
2023/08/08 07:22:24;;;;;;;0.68;0.40;;;;;;;;;;6358248;27;20480;-53
2023/08/08 07:25:26;;;;;;;5.97;0.85;;;;;;;;;;6362369;27;20596;-54
2023/08/08 07:28:28;;;;;;;1.23;0.40;;;;;;;;;;6354916;27;20031;-54
2023/08/08 07:31:30;;;;;;;1.05;0.63;;;23.20;76.90;;;;;;6359723;27;20736;-52
2023/08/08 07:34:33;;;;;;;0.65;0.25;;;;;;;;;;6356408;27;20625;-53
2023/08/08 07:37:35;;;;;;;1.15;0.32;;;;;;;;;;6355734;27;20043;-52
2023/08/08 07:40:40;;;;;;;0.52;0.30;;;;;;;;;;6357769;27;20978;-52
2023/08/08 07:43:42;;;;;;;3.13;0.73;;;;;;;;;;6359529;27;20076;-51
2023/08/08 07:46:44;;;;;;;1.45;0.50;;;23.20;76.50;;;;;;6340077;27;20068;-54
2023/08/08 07:49:46;;;;;;;1.40;0.63;;;;;;;;;;6350389;27;20050;-53
2023/08/08 07:52:48;;;;;;;0.82;0.40;;;;;;;;;;6362115;27;20764;-54
2023/08/08 07:55:50;;;;;;;3.00;0.60;;;;;;;;;;6339388;27;20039;-54
2023/08/08 07:58:52;;;;;;;3.40;0.82;;;;;;;;;;6361480;27;20038;-53
2023/08/08 08:02:02;;;;;;;2.63;0.60;;;23.20;72.80;;;;;;6364923;27;20031;-55
2023/08/08 08:05:08;;;;;;;2.05;0.60;;;23.30;77.00;;;;;;6361750;27;20038;-54
2023/08/08 08:08:10;;;;;;;2.10;0.70;;;;;;;;;;6341324;27;20087;-52
2023/08/08 08:11:13;;;;;;;1.42;0.60;;;;;;;;;;6356206;27;20035;-54
2023/08/08 08:14:16;;;;;;;2.75;0.50;;;23.50;77.10;;;;;;6359848;27;20027;-56
2023/08/08 08:17:18;;;;;;;1.67;0.52;;;23.10;76.90;;;;;;6358349;27;20039;-55
2023/08/08 08:20:23;;;;;;;0.57;0.50;;;;;;;;;;6361309;27;20042;-55
2023/08/08 08:23:26;;;;;;;1.58;0.50;;;;;;;;;;6340865;27;20197;-53
2023/08/08 08:26:28;;;;;;;0.77;0.40;;;;;;;;;;6362396;27;20039;-54
2023/08/08 08:29:31;;;;;;;1.05;0.30;;;;;;;;;;6360969;27;20823;-53
2023/08/08 08:32:34;;;;;;;1.70;0.40;;;23.30;76.50;;;;;;6360187;27;20116;-56
2023/08/08 08:35:37;;;;;;;1.15;0.40;;;;;;;;;;6359637;27;20034;-56
2023/08/08 08:38:39;;;;;;;1.75;0.35;;;;;;;;;;6340391;27;20039;-54
2023/08/08 08:41:42;;;;;;;0.30;0.20;;;;;;;;;;6358699;27;20034;-55
2023/08/08 08:44:44;;;;;;;1.25;0.40;;;;;;;;;;6361218;27;20083;-53
2023/08/08 08:47:47;;;;;;;0.47;0.30;;;23.40;76.10;;;;;;6342493;27;20134;-53
2023/08/08 08:50:49;;;;;;;0.98;0.40;;;;;;;;;;6337707;27;20109;-53
2023/08/08 08:53:52;;;;;;;1.55;0.30;;;;;;;;;;6352667;27;20041;-55
2023/08/08 08:56:57;;;;;;;1.27;0.32;;;;;;;;;;6355924;27;20091;-55
2023/08/08 08:59:59;;;;;;;0.25;0.20;;;23.60;74.90;;;;;;6360321;27;20036;-55
2023/08/08 09:03:01;;;;;;;0.57;0.20;;;23.40;76.30;;;;;;6362000;27;20648;-54
2023/08/08 09:06:05;;;;;;;1.30;0.10;;;23.40;76.90;;;;;;6357716;27;20035;-54
2023/08/08 09:09:10;;;;;;;0.10;0.10;;;;;;;;;;6358831;27;20035;-53
2023/08/08 09:12:19;;;;;;;0.65;0.17;;;23.40;76.10;;;;;;6355253;27;20477;-55
2023/08/08 09:15:21;;;;;;;1.20;0.30;;;;;;;;;;6339000;27;20046;-55
2023/08/08 09:18:24;;;;;;;0.30;0.20;;;23.50;75.80;;;;;;6357466;27;20031;-56
2023/08/08 09:21:26;;;;;;;0.25;0.20;;;;;;;;;;6358659;27;20043;-54
2023/08/08 09:24:28;;;;;;;0.85;0.20;;;;;;;;;;6359354;27;20436;-55
2023/08/08 09:27:30;;;;;;;1.05;0.30;;;;;;;;;;6343718;27;20546;-55
2023/08/08 09:30:32;;;;;;;0.40;0.20;;;;;;;;;;6359871;27;20615;-55
2023/08/08 09:33:39;;;;;;;0.80;0.30;;;23.70;76.00;;;;;;6357266;27;21049;-51
2023/08/08 09:36:41;;;;;;;0.80;0.30;;;;;;;;;;6361379;27;21001;-54
2023/08/08 09:39:46;;;;;;;0.28;0.20;;;;;;;;;;6334241;27;20038;-55
2023/08/08 09:42:48;;;;;;;0.30;0.30;;;;;;;;;;6358659;27;20054;-51
2023/08/08 09:45:52;;;;;;;0.30;0.22;;;23.60;75.20;;;;;;6360739;27;20041;-53
2023/08/08 09:48:55;;;;;;;0.20;0.20;;;23.70;76.20;;;;;;6361382;27;20066;-55
2023/08/08 09:51:57;;;;;;;0.32;0.22;;;;;;;;;;6356106;27;20045;-55
2023/08/08 09:55:01;;;;;;;0.30;0.20;;;;;;;;;;6351121;27;20061;-53
2023/08/08 09:58:04;;;;;;;0.40;0.20;;;23.60;73.60;;;;;;6350395;27;20031;-53
2023/08/08 10:01:06;;;;;;;0.10;0.10;;;;;;;;;;6353222;27;20057;-54
2023/08/08 10:04:10;;;;;;;0.40;0.30;;;23.70;75.30;;;;;;6355789;27;20037;-54
2023/08/08 10:07:14;;;;;;;1.58;0.30;;;;;;;;;;6356597;27;20038;-52
2023/08/08 10:10:18;;;;;;;0.32;0.30;;;;;;;;;;6337443;27;20035;-51
2023/08/08 10:13:21;;;;;;;0.35;0.22;;;23.80;75.60;;;;;;6357828;27;20037;-52
2023/08/08 10:16:23;;;;;;;0.77;0.20;;;;;;;;;;6354753;27;20337;-53
2023/08/08 10:19:28;;;;;;;0.90;0.47;;;23.70;75.40;;;;;;6353372;27;20046;-52
2023/08/08 10:22:30;;;;;;;0.32;0.20;;;;;;;;;;6352153;27;20070;-55
2023/08/08 10:25:32;;;;;;;0.20;0.20;;;;;;;;;;6345448;27;20296;-53
2023/08/08 10:28:34;;;;;;;0.88;0.30;;;;;;;;;;6357811;27;20318;-53
2023/08/08 10:31:36;;;;;;;0.45;0.43;;;23.50;74.90;;;;;;6349719;27;20035;-53
2023/08/08 10:34:41;;;;;;;0.73;0.30;;;23.80;74.10;;;;;;6350225;27;20531;-51
2023/08/08 10:37:53;;;;;;;0.38;0.30;;;23.80;74.10;;;;;;6333134;27;20173;-50
2023/08/08 10:40:58;;;;;;;0.80;0.30;;;24.00;77.20;;;;;;6355162;27;20031;-55
2023/08/08 10:44:01;;;;;;;0.40;0.40;;;;;;;;;;6352536;27;20050;-49
2023/08/08 10:47:04;;;;;;;0.88;0.30;;;;;;;;;;6355448;27;20117;-52
2023/08/08 10:50:09;;;;;;;1.00;0.32;;;23.90;73.00;;;;;;6355657;27;20043;-52
2023/08/08 10:53:12;;;;;;;1.45;0.40;;;;;;;;;;6342770;27;20613;-53
2023/08/08 10:56:14;;;;;;;0.68;0.52;;;;;;;;;;6362624;27;20042;-53
2023/08/08 10:59:18;;;;;;;1.38;0.50;;;23.90;72.80;;;;;;6360340;27;20808;-53
2023/08/08 11:02:21;;;;;;;0.30;0.20;;;;;;;;;;6359599;27;20042;-53
2023/08/08 11:05:24;;;;;;;1.65;0.40;;;24.00;72.20;;;;;;6360870;27;20202;-51
2023/08/08 11:08:30;;;;;;;1.13;0.40;;;23.90;72.00;;;;;;6360905;27;20513;-53
2023/08/08 11:11:37;;;;;;;0.32;0.22;;;24.10;71.60;;;;;;6361926;27;20097;-53
2023/08/08 11:14:39;;;;;;;0.77;0.40;;;;;;;;;;6361239;27;20038;-54
2023/08/08 11:17:45;;;;;;;0.40;0.30;;;;;;;;;;6364450;27;20042;-53
2023/08/08 11:20:50;;;;;;;1.23;0.60;;;23.90;72.10;;;;;;6364741;27;20102;-53
2023/08/08 11:23:52;;;;;;;1.33;0.55;;;;;;;;;;6361883;27;20041;-52
2023/08/08 11:26:59;;;;;;;1.00;0.40;;;24.20;71.10;;;;;;6359521;27;20067;-53
2023/08/08 11:30:01;;;;;;;1.50;0.28;;;;;;;;;;6342358;27;20041;-52
2023/08/08 11:33:03;;;;;;;0.55;0.40;;;;;;;;;;6357931;27;20034;-54
2023/08/08 11:36:13;;;;;;;1.52;0.50;;;24.20;71.10;;;;;;6362987;27;20059;-52
2023/08/08 11:39:16;;;;;;;2.72;0.65;;;;;;;;;;6346927;27;20072;-54
2023/08/08 11:42:18;;;;;;;0.90;0.40;;;;;;;;;;6361268;27;20079;-52
2023/08/08 11:45:20;;;;;;;0.73;0.32;;;;;;;;;;6348221;27;20614;-53
2023/08/08 11:48:22;;;;;;;0.68;0.40;;;;;;;;;;6342007;27;20485;-53
2023/08/08 11:51:24;;;;;;;1.17;0.50;;;24.20;69.70;;;;;;6354986;27;20034;-54
2023/08/08 11:54:28;;;;;;;1.42;0.50;;;24.20;70.50;;;;;;6348287;27;20039;-53
2023/08/08 11:57:29;;;;;;;0.98;0.88;;;;;;;;;;6334612;27;20057;-52
2023/08/08 12:00:32;;;;;;;0.70;0.40;;;;;;;;;;6355817;27;20046;-54
2023/08/08 12:03:38;;;;;;;0.95;0.40;;;24.40;71.50;;;;;;6356393;27;20050;-53
2023/08/08 12:06:42;;;;;;;1.35;0.40;;;24.20;71.20;;;;;;6353801;27;20216;-54
2023/08/08 12:09:44;;;;;;;0.73;0.40;;;;;;;;;;6361686;27;20051;-51
2023/08/08 12:12:46;;;;;;;2.78;0.65;;;;;;;;;;6360022;27;20284;-53
2023/08/08 12:15:48;;;;;;;1.27;0.40;;;;;;;;;;6359496;27;20027;-53
2023/08/08 12:18:52;;;;;;;1.38;0.50;;;;;;;;;;6362382;27;20031;-55
2023/08/08 12:21:57;;;;;;;0.20;0.20;;;24.30;69.70;;;;;;6363619;27;20043;-55
2023/08/08 12:24:59;;;;;;;0.88;0.47;;;;;;;;;;6357812;27;20041;-55
2023/08/08 12:28:02;;;;;;;1.45;0.70;;;24.40;70.70;;;;;;6360949;27;20405;-55
2023/08/08 12:31:04;;;;;;;1.60;0.63;;;;;;;;;;6357356;27;20047;-54
2023/08/08 12:34:06;;;;;;;2.40;0.80;;;;;;;;;;6337776;27;20043;-54
